sensor_id;sensor_type;location;lat;lon;timestamp;temperature;humidity
25991;DHT22;13779;-33.886;151.198;2023-03-16T00:01:42;25.90;99.90
25991;DHT22;13779;-33.886;151.198;2023-03-16T00:04:11;25.90;99.90
25991;DHT22;13779;-33.886;151.198;2023-03-16T00:06:41;25.90;99.90
25991;DHT22;13779;-33.886;151.198;2023-03-16T00:09:11;26.00;99.90
25991;DHT22;13779;-33.886;151.198;2023-03-16T00:11:41;26.20;99.90
25991;DHT22;13779;-33.886;151.198;2023-03-16T00:14:10;26.30;99.90
25991;DHT22;13779;-33.886;151.198;2023-03-16T00:16:40;26.50;99.90
25991;DHT22;13779;-33.886;151.198;2023-03-16T00:19:10;26.50;99.90
25991;DHT22;13779;-33.886;151.198;2023-03-16T00:21:40;26.60;99.90
25991;DHT22;13779;-33.886;151.198;2023-03-16T00:24:10;26.70;99.90
25991;DHT22;13779;-33.886;151.198;2023-03-16T00:26:40;26.80;99.90
25991;DHT22;13779;-33.886;151.198;2023-03-16T00:29:10;27.00;99.90
25991;DHT22;13779;-33.886;151.198;2023-03-16T00:31:40;27.00;99.90
25991;DHT22;13779;-33.886;151.198;2023-03-16T00:34:13;27.20;99.90
25991;DHT22;13779;-33.886;151.198;2023-03-16T00:36:43;27.30;99.90
25991;DHT22;13779;-33.886;151.198;2023-03-16T00:39:12;27.40;99.90
25991;DHT22;13779;-33.886;151.198;2023-03-16T00:41:42;27.40;99.90
25991;DHT22;13779;-33.886;151.198;2023-03-16T00:44:12;27.50;99.90
25991;DHT22;13779;-33.886;151.198;2023-03-16T00:46:42;27.70;99.90
25991;DHT22;13779;-33.886;151.198;2023-03-16T00:49:11;27.80;99.90
25991;DHT22;13779;-33.886;151.198;2023-03-16T00:51:41;27.90;99.90
25991;DHT22;13779;-33.886;151.198;2023-03-16T00:54:14;28.10;99.90
25991;DHT22;13779;-33.886;151.198;2023-03-16T00:56:45;28.20;99.90
25991;DHT22;13779;-33.886;151.198;2023-03-16T00:59:15;28.20;99.90
25991;DHT22;13779;-33.886;151.198;2023-03-16T01:01:47;28.30;99.90
25991;DHT22;13779;-33.886;151.198;2023-03-16T01:04:17;28.40;99.90
25991;DHT22;13779;-33.886;151.198;2023-03-16T01:06:47;28.60;99.90
25991;DHT22;13779;-33.886;151.198;2023-03-16T01:09:17;28.70;99.90
25991;DHT22;13779;-33.886;151.198;2023-03-16T01:11:46;28.70;99.90
25991;DHT22;13779;-33.886;151.198;2023-03-16T01:14:21;28.80;99.90
25991;DHT22;13779;-33.886;151.198;2023-03-16T01:16:52;28.90;99.90
25991;DHT22;13779;-33.886;151.198;2023-03-16T01:19:21;29.00;99.90
25991;DHT22;13779;-33.886;151.198;2023-03-16T01:21:51;29.10;99.90
25991;DHT22;13779;-33.886;151.198;2023-03-16T01:24:21;29.00;99.90
25991;DHT22;13779;-33.886;151.198;2023-03-16T01:26:52;29.20;99.90
25991;DHT22;13779;-33.886;151.198;2023-03-16T01:29:22;29.20;99.90
25991;DHT22;13779;-33.886;151.198;2023-03-16T01:31:52;29.30;99.90
25991;DHT22;13779;-33.886;151.198;2023-03-16T01:34:23;29.40;99.90
25991;DHT22;13779;-33.886;151.198;2023-03-16T01:36:53;29.40;99.90
25991;DHT22;13779;-33.886;151.198;2023-03-16T01:39:23;29.40;99.90
25991;DHT22;13779;-33.886;151.198;2023-03-16T01:41:52;29.40;99.90
25991;DHT22;13779;-33.886;151.198;2023-03-16T01:44:24;29.50;99.90
25991;DHT22;13779;-33.886;151.198;2023-03-16T01:47:00;29.60;99.90
25991;DHT22;13779;-33.886;151.198;2023-03-16T01:49:34;29.60;99.90
25991;DHT22;13779;-33.886;151.198;2023-03-16T01:52:06;29.60;99.90
25991;DHT22;13779;-33.886;151.198;2023-03-16T01:54:39;29.60;99.90
25991;DHT22;13779;-33.886;151.198;2023-03-16T01:57:11;29.70;99.90
25991;DHT22;13779;-33.886;151.198;2023-03-16T02:02:16;29.90;99.90
25991;DHT22;13779;-33.886;151.198;2023-03-16T02:07:21;29.90;99.90
25991;DHT22;13779;-33.886;151.198;2023-03-16T02:09:53;29.90;99.90
25991;DHT22;13779;-33.886;151.198;2023-03-16T02:12:24;30.20;99.90
25991;DHT22;13779;-33.886;151.198;2023-03-16T02:14:53;30.20;99.90
25991;DHT22;13779;-33.886;151.198;2023-03-16T02:17:24;30.30;99.90
25991;DHT22;13779;-33.886;151.198;2023-03-16T02:22:44;30.30;99.90
25991;DHT22;13779;-33.886;151.198;2023-03-16T02:25:16;30.50;99.90
25991;DHT22;13779;-33.886;151.198;2023-03-16T02:27:59;30.60;99.90
25991;DHT22;13779;-33.886;151.198;2023-03-16T02:30:31;30.50;99.90
25991;DHT22;13779;-33.886;151.198;2023-03-16T02:33:00;30.50;99.90
25991;DHT22;13779;-33.886;151.198;2023-03-16T02:35:36;30.40;99.90
25991;DHT22;13779;-33.886;151.198;2023-03-16T02:38:05;30.40;99.90
25991;DHT22;13779;-33.886;151.198;2023-03-16T02:40:36;30.40;99.90
25991;DHT22;13779;-33.886;151.198;2023-03-16T02:43:08;30.50;99.90
25991;DHT22;13779;-33.886;151.198;2023-03-16T02:48:09;30.80;98.80
25991;DHT22;13779;-33.886;151.198;2023-03-16T02:50:46;31.10;95.30
25991;DHT22;13779;-33.886;151.198;2023-03-16T02:53:17;31.10;93.10
25991;DHT22;13779;-33.886;151.198;2023-03-16T02:55:47;31.30;91.80
25991;DHT22;13779;-33.886;151.198;2023-03-16T02:58:17;31.40;91.40
25991;DHT22;13779;-33.886;151.198;2023-03-16T03:00:47;31.50;89.60
25991;DHT22;13779;-33.886;151.198;2023-03-16T03:03:16;31.60;90.10
25991;DHT22;13779;-33.886;151.198;2023-03-16T03:05:46;31.60;89.00
25991;DHT22;13779;-33.886;151.198;2023-03-16T03:08:16;31.60;87.70
25991;DHT22;13779;-33.886;151.198;2023-03-16T03:10:48;31.60;86.20
25991;DHT22;13779;-33.886;151.198;2023-03-16T03:13:18;31.60;87.60
25991;DHT22;13779;-33.886;151.198;2023-03-16T03:15:47;31.70;88.30
25991;DHT22;13779;-33.886;151.198;2023-03-16T03:18:17;31.80;87.40
25991;DHT22;13779;-33.886;151.198;2023-03-16T03:20:47;31.90;89.80
25991;DHT22;13779;-33.886;151.198;2023-03-16T03:23:17;31.80;90.30
25991;DHT22;13779;-33.886;151.198;2023-03-16T03:25:47;31.70;89.50
25991;DHT22;13779;-33.886;151.198;2023-03-16T03:28:16;31.80;88.90
25991;DHT22;13779;-33.886;151.198;2023-03-16T03:30:46;31.80;88.90
25991;DHT22;13779;-33.886;151.198;2023-03-16T03:33:16;31.80;89.40
25991;DHT22;13779;-33.886;151.198;2023-03-16T03:35:46;31.60;90.60
25991;DHT22;13779;-33.886;151.198;2023-03-16T03:38:16;31.60;90.10
25991;DHT22;13779;-33.886;151.198;2023-03-16T03:40:49;31.70;89.40
25991;DHT22;13779;-33.886;151.198;2023-03-16T03:43:20;31.90;88.90
25991;DHT22;13779;-33.886;151.198;2023-03-16T03:45:54;32.10;86.50
25991;DHT22;13779;-33.886;151.198;2023-03-16T03:48:24;32.20;85.70
25991;DHT22;13779;-33.886;151.198;2023-03-16T03:50:54;32.10;87.60
25991;DHT22;13779;-33.886;151.198;2023-03-16T03:53:24;31.90;89.10
25991;DHT22;13779;-33.886;151.198;2023-03-16T03:55:54;32.00;89.80
25991;DHT22;13779;-33.886;151.198;2023-03-16T03:58:23;31.90;88.10
25991;DHT22;13779;-33.886;151.198;2023-03-16T04:00:53;31.90;87.80
25991;DHT22;13779;-33.886;151.198;2023-03-16T04:03:22;32.10;88.40
25991;DHT22;13779;-33.886;151.198;2023-03-16T04:05:52;32.10;87.30
25991;DHT22;13779;-33.886;151.198;2023-03-16T04:08:22;32.30;86.50
25991;DHT22;13779;-33.886;151.198;2023-03-16T04:10:52;32.30;86.30
25991;DHT22;13779;-33.886;151.198;2023-03-16T04:13:21;32.30;86.70
25991;DHT22;13779;-33.886;151.198;2023-03-16T04:15:58;32.30;83.40
25991;DHT22;13779;-33.886;151.198;2023-03-16T04:18:28;32.30;85.50
25991;DHT22;13779;-33.886;151.198;2023-03-16T04:20:58;32.30;85.40
25991;DHT22;13779;-33.886;151.198;2023-03-16T04:23:27;32.50;84.90
25991;DHT22;13779;-33.886;151.198;2023-03-16T04:25:57;32.70;84.20
25991;DHT22;13779;-33.886;151.198;2023-03-16T04:28:27;32.90;86.00
25991;DHT22;13779;-33.886;151.198;2023-03-16T04:31:07;33.00;83.10
25991;DHT22;13779;-33.886;151.198;2023-03-16T04:33:37;33.20;82.80
25991;DHT22;13779;-33.886;151.198;2023-03-16T04:36:07;33.30;83.30
25991;DHT22;13779;-33.886;151.198;2023-03-16T04:38:37;33.30;81.60
25991;DHT22;13779;-33.886;151.198;2023-03-16T04:41:08;33.30;80.30
25991;DHT22;13779;-33.886;151.198;2023-03-16T04:43:39;33.20;78.30
25991;DHT22;13779;-33.886;151.198;2023-03-16T04:46:08;33.00;77.70
25991;DHT22;13779;-33.886;151.198;2023-03-16T04:48:38;33.10;77.40
25991;DHT22;13779;-33.886;151.198;2023-03-16T04:51:07;33.30;75.90
25991;DHT22;13779;-33.886;151.198;2023-03-16T04:53:36;33.30;76.20
25991;DHT22;13779;-33.886;151.198;2023-03-16T04:56:06;33.40;76.00
25991;DHT22;13779;-33.886;151.198;2023-03-16T04:58:36;33.30;74.40
25991;DHT22;13779;-33.886;151.198;2023-03-16T05:01:05;33.20;75.60
25991;DHT22;13779;-33.886;151.198;2023-03-16T05:03:35;33.20;75.60
25991;DHT22;13779;-33.886;151.198;2023-03-16T05:06:04;33.30;66.70
25991;DHT22;13779;-33.886;151.198;2023-03-16T05:08:34;33.30;60.70
25991;DHT22;13779;-33.886;151.198;2023-03-16T05:11:04;33.20;58.40
25991;DHT22;13779;-33.886;151.198;2023-03-16T05:13:34;33.20;57.30
25991;DHT22;13779;-33.886;151.198;2023-03-16T05:16:03;33.10;57.80
25991;DHT22;13779;-33.886;151.198;2023-03-16T05:18:33;33.00;59.90
25991;DHT22;13779;-33.886;151.198;2023-03-16T05:21:02;33.00;58.50
25991;DHT22;13779;-33.886;151.198;2023-03-16T05:23:32;33.00;57.70
25991;DHT22;13779;-33.886;151.198;2023-03-16T05:26:01;33.30;56.30
25991;DHT22;13779;-33.886;151.198;2023-03-16T05:28:31;33.30;56.00
25991;DHT22;13779;-33.886;151.198;2023-03-16T05:31:01;33.40;54.70
25991;DHT22;13779;-33.886;151.198;2023-03-16T05:33:31;33.40;55.70
25991;DHT22;13779;-33.886;151.198;2023-03-16T05:36:01;33.40;55.10
25991;DHT22;13779;-33.886;151.198;2023-03-16T05:38:30;33.50;54.70
25991;DHT22;13779;-33.886;151.198;2023-03-16T05:41:00;33.30;55.60
25991;DHT22;13779;-33.886;151.198;2023-03-16T05:43:32;33.20;55.80
25991;DHT22;13779;-33.886;151.198;2023-03-16T05:46:02;33.20;55.60
25991;DHT22;13779;-33.886;151.198;2023-03-16T05:48:31;33.20;55.90
25991;DHT22;13779;-33.886;151.198;2023-03-16T05:51:03;33.10;55.90
25991;DHT22;13779;-33.886;151.198;2023-03-16T05:53:33;33.20;55.70
25991;DHT22;13779;-33.886;151.198;2023-03-16T05:56:03;33.30;55.20
25991;DHT22;13779;-33.886;151.198;2023-03-16T05:58:33;33.40;55.30
25991;DHT22;13779;-33.886;151.198;2023-03-16T06:01:03;33.30;56.40
25991;DHT22;13779;-33.886;151.198;2023-03-16T06:03:33;33.00;56.50
25991;DHT22;13779;-33.886;151.198;2023-03-16T06:06:03;32.90;56.50
25991;DHT22;13779;-33.886;151.198;2023-03-16T06:08:32;32.80;56.50
25991;DHT22;13779;-33.886;151.198;2023-03-16T06:11:02;32.90;56.40
25991;DHT22;13779;-33.886;151.198;2023-03-16T06:13:32;33.10;55.90
25991;DHT22;13779;-33.886;151.198;2023-03-16T06:16:01;33.00;55.60
25991;DHT22;13779;-33.886;151.198;2023-03-16T06:18:32;33.10;55.50
25991;DHT22;13779;-33.886;151.198;2023-03-16T06:21:01;33.20;54.90
25991;DHT22;13779;-33.886;151.198;2023-03-16T06:23:31;33.20;54.60
25991;DHT22;13779;-33.886;151.198;2023-03-16T06:26:01;33.20;54.80
25991;DHT22;13779;-33.886;151.198;2023-03-16T06:28:31;33.30;54.80
25991;DHT22;13779;-33.886;151.198;2023-03-16T06:31:00;33.20;53.90
25991;DHT22;13779;-33.886;151.198;2023-03-16T06:33:30;33.30;54.20
25991;DHT22;13779;-33.886;151.198;2023-03-16T06:36:00;33.30;54.00
25991;DHT22;13779;-33.886;151.198;2023-03-16T06:38:29;33.10;54.30
25991;DHT22;13779;-33.886;151.198;2023-03-16T06:40:59;32.90;55.40
25991;DHT22;13779;-33.886;151.198;2023-03-16T06:43:29;32.80;56.40
25991;DHT22;13779;-33.886;151.198;2023-03-16T06:45:59;32.60;56.80
25991;DHT22;13779;-33.886;151.198;2023-03-16T06:48:29;32.60;56.10
25991;DHT22;13779;-33.886;151.198;2023-03-16T06:50:59;32.70;55.90
25991;DHT22;13779;-33.886;151.198;2023-03-16T06:53:28;32.70;55.80
25991;DHT22;13779;-33.886;151.198;2023-03-16T06:55:58;32.80;55.50
25991;DHT22;13779;-33.886;151.198;2023-03-16T06:58:28;32.90;54.60
25991;DHT22;13779;-33.886;151.198;2023-03-16T07:01:02;32.80;55.10
25991;DHT22;13779;-33.886;151.198;2023-03-16T07:03:32;32.60;56.60
25991;DHT22;13779;-33.886;151.198;2023-03-16T07:06:01;32.50;56.30
25991;DHT22;13779;-33.886;151.198;2023-03-16T07:08:31;32.50;56.30
25991;DHT22;13779;-33.886;151.198;2023-03-16T07:11:00;32.30;56.70
25991;DHT22;13779;-33.886;151.198;2023-03-16T07:13:30;32.30;56.00
25991;DHT22;13779;-33.886;151.198;2023-03-16T07:15:59;32.40;56.10
25991;DHT22;13779;-33.886;151.198;2023-03-16T07:18:32;32.40;55.20
25991;DHT22;13779;-33.886;151.198;2023-03-16T07:21:04;32.50;55.20
25991;DHT22;13779;-33.886;151.198;2023-03-16T07:23:34;32.50;55.40
25991;DHT22;13779;-33.886;151.198;2023-03-16T07:26:03;32.40;55.60
25991;DHT22;13779;-33.886;151.198;2023-03-16T07:28:35;32.40;55.80
25991;DHT22;13779;-33.886;151.198;2023-03-16T07:31:05;32.20;55.90
25991;DHT22;13779;-33.886;151.198;2023-03-16T07:33:35;32.10;56.80
25991;DHT22;13779;-33.886;151.198;2023-03-16T07:36:04;32.10;56.10
25991;DHT22;13779;-33.886;151.198;2023-03-16T07:38:34;32.10;55.80
25991;DHT22;13779;-33.886;151.198;2023-03-16T07:41:04;32.00;56.50
25991;DHT22;13779;-33.886;151.198;2023-03-16T07:43:33;31.80;57.20
25991;DHT22;13779;-33.886;151.198;2023-03-16T07:46:03;31.70;57.60
25991;DHT22;13779;-33.886;151.198;2023-03-16T07:48:34;31.50;58.10
25991;DHT22;13779;-33.886;151.198;2023-03-16T07:51:03;31.40;59.10
25991;DHT22;13779;-33.886;151.198;2023-03-16T07:53:34;31.30;59.20
25991;DHT22;13779;-33.886;151.198;2023-03-16T07:56:04;31.20;59.40
25991;DHT22;13779;-33.886;151.198;2023-03-16T07:58:34;31.20;60.20
25991;DHT22;13779;-33.886;151.198;2023-03-16T08:01:03;31.10;59.70
25991;DHT22;13779;-33.886;151.198;2023-03-16T08:03:33;31.00;60.60
25991;DHT22;13779;-33.886;151.198;2023-03-16T08:06:03;30.90;61.40
25991;DHT22;13779;-33.886;151.198;2023-03-16T08:08:33;30.80;61.00
25991;DHT22;13779;-33.886;151.198;2023-03-16T08:11:03;30.70;61.40
25991;DHT22;13779;-33.886;151.198;2023-03-16T08:13:33;30.80;61.70
25991;DHT22;13779;-33.886;151.198;2023-03-16T08:16:03;30.60;62.60
25991;DHT22;13779;-33.886;151.198;2023-03-16T08:18:33;30.60;63.00
25991;DHT22;13779;-33.886;151.198;2023-03-16T08:21:02;30.50;63.60
25991;DHT22;13779;-33.886;151.198;2023-03-16T08:23:32;30.40;63.30
25991;DHT22;13779;-33.886;151.198;2023-03-16T08:26:03;30.30;64.30
25991;DHT22;13779;-33.886;151.198;2023-03-16T08:28:36;30.30;63.60
25991;DHT22;13779;-33.886;151.198;2023-03-16T08:31:06;30.20;65.30
25991;DHT22;13779;-33.886;151.198;2023-03-16T08:33:36;30.10;65.70
25991;DHT22;13779;-33.886;151.198;2023-03-16T08:36:07;30.00;67.20
25991;DHT22;13779;-33.886;151.198;2023-03-16T08:38:37;29.90;67.30
25991;DHT22;13779;-33.886;151.198;2023-03-16T08:41:07;29.80;67.50
25991;DHT22;13779;-33.886;151.198;2023-03-16T08:43:37;29.70;68.30
25991;DHT22;13779;-33.886;151.198;2023-03-16T08:46:06;29.70;68.10
25991;DHT22;13779;-33.886;151.198;2023-03-16T08:48:36;29.60;66.90
25991;DHT22;13779;-33.886;151.198;2023-03-16T08:51:06;29.60;69.10
25991;DHT22;13779;-33.886;151.198;2023-03-16T08:53:37;29.50;68.10
25991;DHT22;13779;-33.886;151.198;2023-03-16T08:56:07;29.50;67.50
25991;DHT22;13779;-33.886;151.198;2023-03-16T08:58:37;29.60;66.30
25991;DHT22;13779;-33.886;151.198;2023-03-16T09:01:08;29.50;67.80
25991;DHT22;13779;-33.886;151.198;2023-03-16T09:03:38;29.50;69.10
25991;DHT22;13779;-33.886;151.198;2023-03-16T09:06:08;29.50;70.40
25991;DHT22;13779;-33.886;151.198;2023-03-16T09:08:39;29.50;70.40
25991;DHT22;13779;-33.886;151.198;2023-03-16T09:11:09;29.40;70.10
25991;DHT22;13779;-33.886;151.198;2023-03-16T09:13:40;29.40;71.70
25991;DHT22;13779;-33.886;151.198;2023-03-16T09:16:11;29.30;71.70
25991;DHT22;13779;-33.886;151.198;2023-03-16T09:18:41;29.20;71.00
25991;DHT22;13779;-33.886;151.198;2023-03-16T09:21:11;29.20;70.80
25991;DHT22;13779;-33.886;151.198;2023-03-16T09:23:41;29.10;71.60
25991;DHT22;13779;-33.886;151.198;2023-03-16T09:26:12;29.10;71.40
25991;DHT22;13779;-33.886;151.198;2023-03-16T09:28:42;29.10;73.00
25991;DHT22;13779;-33.886;151.198;2023-03-16T09:31:16;29.10;73.00
25991;DHT22;13779;-33.886;151.198;2023-03-16T09:33:46;29.10;71.00
25991;DHT22;13779;-33.886;151.198;2023-03-16T09:36:15;29.10;71.50
25991;DHT22;13779;-33.886;151.198;2023-03-16T09:38:45;29.10;70.40
25991;DHT22;13779;-33.886;151.198;2023-03-16T09:41:21;29.10;70.40
25991;DHT22;13779;-33.886;151.198;2023-03-16T09:43:56;29.00;70.60
25991;DHT22;13779;-33.886;151.198;2023-03-16T09:46:32;29.00;72.30
25991;DHT22;13779;-33.886;151.198;2023-03-16T09:49:03;28.90;71.10
25991;DHT22;13779;-33.886;151.198;2023-03-16T09:56:47;28.80;72.60
25991;DHT22;13779;-33.886;151.198;2023-03-16T09:59:17;28.80;72.60
25991;DHT22;13779;-33.886;151.198;2023-03-16T10:02:04;28.80;73.60
25991;DHT22;13779;-33.886;151.198;2023-03-16T10:04:51;28.70;74.00
25991;DHT22;13779;-33.886;151.198;2023-03-16T10:10:02;28.60;74.00
25991;DHT22;13779;-33.886;151.198;2023-03-16T10:12:36;28.60;71.90
25991;DHT22;13779;-33.886;151.198;2023-03-16T10:15:16;28.60;72.60
25991;DHT22;13779;-33.886;151.198;2023-03-16T10:17:50;28.50;72.30
25991;DHT22;13779;-33.886;151.198;2023-03-16T10:20:20;28.50;74.50
25991;DHT22;13779;-33.886;151.198;2023-03-16T10:22:51;28.50;74.90
25991;DHT22;13779;-33.886;151.198;2023-03-16T10:27:59;28.40;74.60
25991;DHT22;13779;-33.886;151.198;2023-03-16T10:30:33;28.40;73.50
25991;DHT22;13779;-33.886;151.198;2023-03-16T10:33:04;28.50;73.70
25991;DHT22;13779;-33.886;151.198;2023-03-16T10:40:58;28.40;74.80
25991;DHT22;13779;-33.886;151.198;2023-03-16T10:43:28;28.30;73.70
25991;DHT22;13779;-33.886;151.198;2023-03-16T10:46:00;28.30;72.40
25991;DHT22;13779;-33.886;151.198;2023-03-16T10:48:30;28.30;74.20
25991;DHT22;13779;-33.886;151.198;2023-03-16T10:51:04;28.20;75.30
25991;DHT22;13779;-33.886;151.198;2023-03-16T10:53:35;28.20;71.50
25991;DHT22;13779;-33.886;151.198;2023-03-16T10:56:17;28.20;72.30
25991;DHT22;13779;-33.886;151.198;2023-03-16T10:58:47;28.20;73.10
25991;DHT22;13779;-33.886;151.198;2023-03-16T11:01:19;28.20;71.90
25991;DHT22;13779;-33.886;151.198;2023-03-16T11:03:50;28.20;70.40
25991;DHT22;13779;-33.886;151.198;2023-03-16T11:06:25;28.10;72.60
25991;DHT22;13779;-33.886;151.198;2023-03-16T11:09:32;28.10;72.40
25991;DHT22;13779;-33.886;151.198;2023-03-16T11:11:55;28.10;72.60
25991;DHT22;13779;-33.886;151.198;2023-03-16T11:14:25;27.90;76.10
25991;DHT22;13779;-33.886;151.198;2023-03-16T11:19:34;27.80;75.60
25991;DHT22;13779;-33.886;151.198;2023-03-16T11:22:24;27.80;79.10
25991;DHT22;13779;-33.886;151.198;2023-03-16T11:32:39;27.70;77.50
25991;DHT22;13779;-33.886;151.198;2023-03-16T11:37:47;27.60;76.60
25991;DHT22;13779;-33.886;151.198;2023-03-16T11:43:11;27.50;78.80
25991;DHT22;13779;-33.886;151.198;2023-03-16T11:45:49;27.40;79.50
25991;DHT22;13779;-33.886;151.198;2023-03-16T11:48:27;27.30;82.40
25991;DHT22;13779;-33.886;151.198;2023-03-16T11:51:08;27.20;83.30
25991;DHT22;13779;-33.886;151.198;2023-03-16T11:56:25;27.20;80.20
25991;DHT22;13779;-33.886;151.198;2023-03-16T12:04:41;27.40;73.80
25991;DHT22;13779;-33.886;151.198;2023-03-16T12:09:55;27.50;69.90
25991;DHT22;13779;-33.886;151.198;2023-03-16T12:17:53;27.60;67.90
25991;DHT22;13779;-33.886;151.198;2023-03-16T12:20:25;27.60;67.20
25991;DHT22;13779;-33.886;151.198;2023-03-16T12:23:10;27.60;66.20
25991;DHT22;13779;-33.886;151.198;2023-03-16T12:25:41;27.60;65.70
25991;DHT22;13779;-33.886;151.198;2023-03-16T12:28:31;27.70;66.10
25991;DHT22;13779;-33.886;151.198;2023-03-16T12:39:06;27.50;67.30
25991;DHT22;13779;-33.886;151.198;2023-03-16T12:44:29;27.40;69.10
25991;DHT22;13779;-33.886;151.198;2023-03-16T12:49:33;27.30;69.50
25991;DHT22;13779;-33.886;151.198;2023-03-16T12:52:05;27.30;69.90
25991;DHT22;13779;-33.886;151.198;2023-03-16T12:54:47;27.30;70.10
25991;DHT22;13779;-33.886;151.198;2023-03-16T12:57:17;27.30;70.70
25991;DHT22;13779;-33.886;151.198;2023-03-16T12:59:47;27.20;71.60
25991;DHT22;13779;-33.886;151.198;2023-03-16T13:02:30;27.20;71.10
25991;DHT22;13779;-33.886;151.198;2023-03-16T13:05:11;27.20;71.90
25991;DHT22;13779;-33.886;151.198;2023-03-16T13:07:46;27.10;71.80
25991;DHT22;13779;-33.886;151.198;2023-03-16T13:10:17;27.10;74.20
25991;DHT22;13779;-33.886;151.198;2023-03-16T13:12:48;27.10;73.70
25991;DHT22;13779;-33.886;151.198;2023-03-16T13:18:01;27.00;72.90
25991;DHT22;13779;-33.886;151.198;2023-03-16T13:20:31;27.00;74.60
25991;DHT22;13779;-33.886;151.198;2023-03-16T13:28:36;26.90;76.70
25991;DHT22;13779;-33.886;151.198;2023-03-16T13:33:55;26.80;80.20
25991;DHT22;13779;-33.886;151.198;2023-03-16T13:36:27;26.70;79.40
25991;DHT22;13779;-33.886;151.198;2023-03-16T13:41:31;26.60;81.70
25991;DHT22;13779;-33.886;151.198;2023-03-16T13:44:11;26.50;82.60
25991;DHT22;13779;-33.886;151.198;2023-03-16T13:46:42;26.50;82.10
25991;DHT22;13779;-33.886;151.198;2023-03-16T13:49:12;26.40;83.00
25991;DHT22;13779;-33.886;151.198;2023-03-16T13:51:41;26.40;83.40
25991;DHT22;13779;-33.886;151.198;2023-03-16T13:54:20;26.40;85.30
25991;DHT22;13779;-33.886;151.198;2023-03-16T13:56:57;26.40;85.20
25991;DHT22;13779;-33.886;151.198;2023-03-16T13:59:27;26.30;87.50
25991;DHT22;13779;-33.886;151.198;2023-03-16T14:01:58;26.30;88.10
25991;DHT22;13779;-33.886;151.198;2023-03-16T14:04:30;26.20;87.10
25991;DHT22;13779;-33.886;151.198;2023-03-16T14:07:02;26.20;86.70
25991;DHT22;13779;-33.886;151.198;2023-03-16T14:09:34;26.20;86.70
25991;DHT22;13779;-33.886;151.198;2023-03-16T14:12:04;26.20;86.50
25991;DHT22;13779;-33.886;151.198;2023-03-16T14:14:37;26.20;86.20
25991;DHT22;13779;-33.886;151.198;2023-03-16T14:17:12;26.10;87.40
25991;DHT22;13779;-33.886;151.198;2023-03-16T14:20:00;26.00;89.20
25991;DHT22;13779;-33.886;151.198;2023-03-16T14:22:34;26.00;90.00
25991;DHT22;13779;-33.886;151.198;2023-03-16T14:25:05;26.00;89.00
25991;DHT22;13779;-33.886;151.198;2023-03-16T14:30:16;25.90;90.30
25991;DHT22;13779;-33.886;151.198;2023-03-16T14:32:58;25.90;90.40
25991;DHT22;13779;-33.886;151.198;2023-03-16T14:35:30;25.90;90.70
25991;DHT22;13779;-33.886;151.198;2023-03-16T14:40:54;25.90;90.40
25991;DHT22;13779;-33.886;151.198;2023-03-16T14:43:28;25.80;90.10
25991;DHT22;13779;-33.886;151.198;2023-03-16T14:45:59;25.80;88.30
25991;DHT22;13779;-33.886;151.198;2023-03-16T14:48:29;25.80;90.60
25991;DHT22;13779;-33.886;151.198;2023-03-16T14:50:59;25.70;90.50
25991;DHT22;13779;-33.886;151.198;2023-03-16T14:53:29;25.70;90.00
25991;DHT22;13779;-33.886;151.198;2023-03-16T14:55:59;25.70;90.40
25991;DHT22;13779;-33.886;151.198;2023-03-16T14:58:28;25.70;88.60
25991;DHT22;13779;-33.886;151.198;2023-03-16T15:00:58;25.70;90.40
25991;DHT22;13779;-33.886;151.198;2023-03-16T15:03:31;25.70;90.20
25991;DHT22;13779;-33.886;151.198;2023-03-16T15:06:01;25.70;89.40
25991;DHT22;13779;-33.886;151.198;2023-03-16T15:08:31;25.70;90.50
25991;DHT22;13779;-33.886;151.198;2023-03-16T15:11:02;25.60;90.10
25991;DHT22;13779;-33.886;151.198;2023-03-16T15:13:33;25.60;88.40
25991;DHT22;13779;-33.886;151.198;2023-03-16T15:16:23;25.60;90.10
25991;DHT22;13779;-33.886;151.198;2023-03-16T15:18:52;25.60;88.30
25991;DHT22;13779;-33.886;151.198;2023-03-16T15:21:22;25.60;89.30
25991;DHT22;13779;-33.886;151.198;2023-03-16T15:23:57;25.60;88.40
25991;DHT22;13779;-33.886;151.198;2023-03-16T15:26:26;25.50;88.60
25991;DHT22;13779;-33.886;151.198;2023-03-16T15:28:56;25.50;88.90
25991;DHT22;13779;-33.886;151.198;2023-03-16T15:31:26;25.50;90.00
25991;DHT22;13779;-33.886;151.198;2023-03-16T15:33:56;25.40;89.80
25991;DHT22;13779;-33.886;151.198;2023-03-16T15:36:25;25.40;89.10
25991;DHT22;13779;-33.886;151.198;2023-03-16T15:38:55;25.40;89.30
25991;DHT22;13779;-33.886;151.198;2023-03-16T15:41:24;25.30;89.30
25991;DHT22;13779;-33.886;151.198;2023-03-16T15:44:10;25.20;89.50
25991;DHT22;13779;-33.886;151.198;2023-03-16T15:46:43;25.20;90.10
25991;DHT22;13779;-33.886;151.198;2023-03-16T15:49:13;25.20;89.80
25991;DHT22;13779;-33.886;151.198;2023-03-16T15:51:43;25.10;90.20
25991;DHT22;13779;-33.886;151.198;2023-03-16T15:54:15;25.10;90.20
25991;DHT22;13779;-33.886;151.198;2023-03-16T15:56:45;25.10;91.50
25991;DHT22;13779;-33.886;151.198;2023-03-16T15:59:21;25.10;91.60
25991;DHT22;13779;-33.886;151.198;2023-03-16T16:01:51;25.00;91.40
25991;DHT22;13779;-33.886;151.198;2023-03-16T16:04:21;25.00;91.60
25991;DHT22;13779;-33.886;151.198;2023-03-16T16:06:52;25.00;91.60
25991;DHT22;13779;-33.886;151.198;2023-03-16T16:09:23;24.90;91.00
25991;DHT22;13779;-33.886;151.198;2023-03-16T16:11:53;24.90;91.00
25991;DHT22;13779;-33.886;151.198;2023-03-16T16:14:23;24.90;91.00
25991;DHT22;13779;-33.886;151.198;2023-03-16T16:16:54;24.80;90.30
25991;DHT22;13779;-33.886;151.198;2023-03-16T16:19:24;24.80;90.30
25991;DHT22;13779;-33.886;151.198;2023-03-16T16:21:55;24.80;90.20
25991;DHT22;13779;-33.886;151.198;2023-03-16T16:24:25;24.80;90.10
25991;DHT22;13779;-33.886;151.198;2023-03-16T16:26:54;24.80;90.60
25991;DHT22;13779;-33.886;151.198;2023-03-16T16:29:26;24.80;91.20
25991;DHT22;13779;-33.886;151.198;2023-03-16T16:31:58;24.90;90.70
25991;DHT22;13779;-33.886;151.198;2023-03-16T16:34:28;24.90;91.20
25991;DHT22;13779;-33.886;151.198;2023-03-16T16:36:58;24.90;91.90
25991;DHT22;13779;-33.886;151.198;2023-03-16T16:39:28;24.80;92.10
25991;DHT22;13779;-33.886;151.198;2023-03-16T16:41:58;24.80;92.50
25991;DHT22;13779;-33.886;151.198;2023-03-16T16:44:28;24.80;92.30